createdAt,value
2022-09-15T00:02:22.175Z,17.34
2022-09-15T00:04:48.855Z,17.37
2022-09-15T00:07:16.265Z,17.37
2022-09-15T00:09:42.930Z,17.35
2022-09-15T00:12:09.534Z,17.28
2022-09-15T00:14:36.118Z,17.27
2022-09-15T00:17:02.916Z,17.33
2022-09-15T00:19:29.567Z,17.31
2022-09-15T00:21:56.214Z,17.30
2022-09-15T00:24:22.778Z,17.35
2022-09-15T00:26:49.360Z,17.33
2022-09-15T00:29:15.943Z,17.28
2022-09-15T00:31:42.585Z,17.25
2022-09-15T00:34:12.192Z,17.22
2022-09-15T00:36:38.954Z,17.21
2022-09-15T00:39:05.737Z,17.22
2022-09-15T00:41:32.393Z,17.19
2022-09-15T00:44:04.154Z,17.20
2022-09-15T00:46:36.934Z,17.24
2022-09-15T00:49:13.508Z,17.15
2022-09-15T00:51:46.957Z,17.13
2022-09-15T00:54:19.426Z,17.12
2022-09-15T00:56:48.941Z,17.10
2022-09-15T00:59:19.745Z,17.10
2022-09-15T01:01:47.069Z,17.07
2022-09-15T01:04:14.608Z,17.06
2022-09-15T01:06:45.268Z,17.06
2022-09-15T01:09:26.772Z,17.09
2022-09-15T01:11:53.653Z,17.12
2022-09-15T01:14:20.240Z,17.11
2022-09-15T01:17:11.122Z,17.04
2022-09-15T01:19:56.665Z,17.09
2022-09-15T01:22:48.556Z,17.05
2022-09-15T01:25:20.610Z,16.95
2022-09-15T01:27:53.500Z,17.00
2022-09-15T01:30:24.321Z,17.07
2022-09-15T01:33:05.702Z,17.15
2022-09-15T01:35:56.698Z,17.18
2022-09-15T01:38:38.645Z,17.24
2022-09-15T01:41:17.749Z,17.22
2022-09-15T01:44:06.009Z,17.24
2022-09-15T01:46:40.409Z,17.23
2022-09-15T01:49:09.530Z,17.26
2022-09-15T01:51:37.140Z,17.29
2022-09-15T01:54:05.891Z,17.34
2022-09-15T01:56:32.795Z,17.30
2022-09-15T01:58:59.687Z,17.30
2022-09-15T02:01:34.116Z,17.32
2022-09-15T02:04:30.484Z,17.30
2022-09-15T02:07:20.600Z,17.22
2022-09-15T02:10:03.901Z,17.15
2022-09-15T02:12:37.933Z,17.11
2022-09-15T02:15:08.746Z,17.06
2022-09-15T02:17:39.885Z,17.06
2022-09-15T02:20:23.838Z,17.13
2022-09-15T02:22:54.703Z,17.16
2022-09-15T02:25:47.201Z,17.19
2022-09-15T02:28:15.245Z,17.20
2022-09-15T02:30:44.932Z,17.17
2022-09-15T02:33:19.748Z,17.06
2022-09-15T02:35:46.827Z,17.06
2022-09-15T02:38:14.169Z,17.01
2022-09-15T02:40:42.826Z,16.95
2022-09-15T02:43:15.277Z,16.88
2022-09-15T02:45:42.414Z,16.86
2022-09-15T02:48:09.746Z,16.80
2022-09-15T02:50:37.178Z,16.78
2022-09-15T02:53:04.175Z,16.78
2022-09-15T02:55:30.942Z,16.75
2022-09-15T02:57:58.239Z,16.76
2022-09-15T03:00:25.753Z,16.85
2022-09-15T03:02:54.434Z,16.93
2022-09-15T03:05:26.929Z,17.01
2022-09-15T03:07:53.893Z,17.01
2022-09-15T03:10:21.295Z,17.00
2022-09-15T03:12:49.933Z,17.05
2022-09-15T03:15:18.935Z,17.09
2022-09-15T03:17:47.238Z,17.11
2022-09-15T03:20:20.366Z,17.14
2022-09-15T03:22:47.772Z,17.11
2022-09-15T03:25:14.425Z,17.06
2022-09-15T03:27:41.174Z,17.08
2022-09-15T03:30:08.677Z,17.11
2022-09-15T03:32:35.368Z,17.11
2022-09-15T03:35:02.219Z,17.15
2022-09-15T03:37:28.814Z,17.13
2022-09-15T03:39:56.048Z,17.18
2022-09-15T03:42:22.759Z,17.15
2022-09-15T03:44:49.429Z,17.01
2022-09-15T03:47:16.165Z,17.00
2022-09-15T03:49:42.885Z,16.96
2022-09-15T03:52:10.231Z,16.96
2022-09-15T03:54:36.851Z,16.88
2022-09-15T03:57:03.693Z,16.94
2022-09-15T03:59:30.307Z,16.92
2022-09-15T04:01:57.115Z,16.89
2022-09-15T04:04:24.057Z,16.86
2022-09-15T04:06:50.662Z,16.85
2022-09-15T04:09:17.272Z,16.84
2022-09-15T04:11:43.876Z,16.79
2022-09-15T04:14:10.475Z,16.85
2022-09-15T04:16:37.104Z,16.91
2022-09-15T04:19:03.869Z,16.99
2022-09-15T04:21:32.066Z,16.90
2022-09-15T04:23:58.719Z,16.87
2022-09-15T04:26:28.963Z,16.87
2022-09-15T04:28:55.768Z,16.86
2022-09-15T04:31:22.638Z,16.84
2022-09-15T04:33:52.581Z,16.81
2022-09-15T04:36:21.980Z,16.75
2022-09-15T04:38:49.311Z,16.76
2022-09-15T04:41:16.505Z,16.69
2022-09-15T04:43:46.115Z,16.67
2022-09-15T04:46:13.992Z,16.70
2022-09-15T04:48:41.154Z,16.72
2022-09-15T04:51:12.169Z,16.71
2022-09-15T04:53:39.121Z,16.76
2022-09-15T04:56:11.231Z,16.82
2022-09-15T04:59:12.654Z,16.87
2022-09-15T05:01:39.522Z,16.91
2022-09-15T05:04:06.156Z,16.86
2022-09-15T05:06:33.608Z,16.75
2022-09-15T05:09:00.260Z,16.72
2022-09-15T05:11:28.310Z,16.64
2022-09-15T05:13:55.095Z,16.61
2022-09-15T05:16:24.386Z,16.68
2022-09-15T05:18:52.894Z,16.66
2022-09-15T05:21:21.047Z,16.62
2022-09-15T05:23:48.462Z,16.63
2022-09-15T05:26:17.583Z,16.72
2022-09-15T05:28:44.282Z,16.78
2022-09-15T05:31:19.967Z,16.83
2022-09-15T05:33:47.800Z,16.83
2022-09-15T05:36:15.347Z,16.82
2022-09-15T05:38:42.053Z,16.83
2022-09-15T05:41:10.854Z,16.78
2022-09-15T05:43:38.389Z,16.79
2022-09-15T05:46:07.678Z,16.78
2022-09-15T05:48:34.823Z,16.74
2022-09-15T05:51:01.779Z,16.75
2022-09-15T05:53:28.390Z,16.78
2022-09-15T05:55:56.766Z,16.79
2022-09-15T05:58:23.649Z,16.78
2022-09-15T06:00:50.430Z,16.75
2022-09-15T06:03:17.687Z,16.75
2022-09-15T06:05:44.401Z,16.77
2022-09-15T06:08:11.243Z,16.78
2022-09-15T06:10:37.834Z,16.79
2022-09-15T06:13:04.535Z,16.85
2022-09-15T06:15:31.906Z,16.84
2022-09-15T06:17:58.747Z,16.81
2022-09-15T06:20:25.610Z,16.82
2022-09-15T06:22:53.361Z,16.77
2022-09-15T06:25:19.948Z,16.78
2022-09-15T06:27:49.473Z,16.74
2022-09-15T06:30:16.259Z,16.69
2022-09-15T06:32:47.516Z,16.69
2022-09-15T06:35:15.306Z,16.72
2022-09-15T06:37:42.077Z,16.69
2022-09-15T06:40:09.200Z,16.67
2022-09-15T06:42:35.838Z,16.70
2022-09-15T06:45:03.033Z,16.75
2022-09-15T06:47:33.948Z,16.80
2022-09-15T06:50:01.133Z,16.83
2022-09-15T06:52:27.842Z,16.90
2022-09-15T06:54:54.639Z,16.86
2022-09-15T06:57:21.259Z,16.85
2022-09-15T06:59:47.888Z,16.86
2022-09-15T07:02:14.596Z,16.86
2022-09-15T07:04:41.348Z,16.84
2022-09-15T07:07:08.168Z,16.83
2022-09-15T07:09:34.818Z,16.79
2022-09-15T07:12:01.656Z,16.81
2022-09-15T07:14:28.250Z,16.84
2022-09-15T07:16:54.837Z,16.78
2022-09-15T07:19:21.704Z,16.81
2022-09-15T07:21:48.357Z,16.80
2022-09-15T07:24:15.162Z,16.79
2022-09-15T07:26:42.092Z,16.79
2022-09-15T07:29:09.906Z,16.80
2022-09-15T07:31:38.525Z,16.82
2022-09-15T07:34:06.019Z,16.85
2022-09-15T07:36:32.763Z,16.90
2022-09-15T07:38:59.402Z,16.88
2022-09-15T07:41:30.091Z,16.86
2022-09-15T07:43:58.264Z,16.87
2022-09-15T07:46:26.046Z,16.90
2022-09-15T07:48:57.471Z,16.93
2022-09-15T07:51:25.432Z,16.97
2022-09-15T07:53:53.144Z,17.01
2022-09-15T07:56:20.651Z,17.06
2022-09-15T07:58:47.928Z,17.10
2022-09-15T08:01:15.527Z,17.07
2022-09-15T08:03:48.874Z,17.08
2022-09-15T08:06:17.820Z,17.12
2022-09-15T08:08:44.418Z,17.11
2022-09-15T08:11:18.889Z,17.13
2022-09-15T08:13:49.747Z,17.16
2022-09-15T08:16:19.428Z,17.15
2022-09-15T08:18:46.418Z,17.15
2022-09-15T08:21:20.356Z,17.17
2022-09-15T08:23:53.887Z,17.22
2022-09-15T08:26:20.601Z,17.15
2022-09-15T08:28:47.242Z,17.13
2022-09-15T08:31:14.727Z,17.12
2022-09-15T08:33:45.573Z,17.09
2022-09-15T08:36:13.292Z,17.10
2022-09-15T08:38:40.899Z,17.15
2022-09-15T08:41:40.914Z,17.05
2022-09-15T08:44:22.078Z,17.02
2022-09-15T08:46:51.728Z,17.10
2022-09-15T08:50:04.298Z,17.15
2022-09-15T08:52:41.879Z,17.18
2022-09-15T08:55:27.175Z,17.18
2022-09-15T08:57:54.091Z,17.23
2022-09-15T09:00:20.767Z,17.25
2022-09-15T09:03:00.223Z,17.29
2022-09-15T09:05:53.232Z,17.22
2022-09-15T09:08:40.982Z,17.24
2022-09-15T09:11:19.266Z,17.26
2022-09-15T09:13:50.758Z,17.28
2022-09-15T09:16:30.676Z,17.26
2022-09-15T09:19:08.366Z,17.29
2022-09-15T09:21:38.080Z,17.32
2022-09-15T09:24:08.605Z,17.31
2022-09-15T09:26:36.319Z,17.30
2022-09-15T09:29:08.384Z,17.29
2022-09-15T09:31:35.529Z,17.36
2022-09-15T09:34:13.991Z,17.31
2022-09-15T09:36:40.594Z,17.30
2022-09-15T09:39:12.477Z,17.36
2022-09-15T09:41:40.706Z,17.37
2022-09-15T09:44:11.772Z,17.35
2022-09-15T09:46:38.925Z,17.40
2022-09-15T09:49:17.039Z,17.45
2022-09-15T09:51:59.836Z,17.50
2022-09-15T09:54:28.670Z,17.48
2022-09-15T09:56:57.291Z,17.46
2022-09-15T09:59:35.133Z,17.36
2022-09-15T10:02:11.788Z,17.30
2022-09-15T10:04:39.912Z,17.33
2022-09-15T10:07:07.416Z,17.36
2022-09-15T10:09:34.170Z,17.41
2022-09-15T10:12:04.410Z,17.41
2022-09-15T10:14:41.480Z,17.45
2022-09-15T10:17:36.369Z,17.45
2022-09-15T10:20:05.965Z,17.40
2022-09-15T10:22:39.839Z,17.45
2022-09-15T10:25:21.305Z,17.42
2022-09-15T10:28:09.619Z,17.49
2022-09-15T10:30:36.975Z,17.54
2022-09-15T10:33:29.521Z,17.55
2022-09-15T10:36:03.413Z,17.51
2022-09-15T10:38:40.900Z,17.49
2022-09-15T10:41:18.501Z,17.47
2022-09-15T10:44:02.587Z,17.44
2022-09-15T10:47:02.966Z,17.50
2022-09-15T10:49:47.924Z,17.49
2022-09-15T10:52:32.827Z,17.52
2022-09-15T10:55:08.523Z,17.52
2022-09-15T10:57:53.709Z,17.54
2022-09-15T11:00:25.903Z,17.60
2022-09-15T11:03:13.976Z,17.70
2022-09-15T11:05:49.206Z,17.74
2022-09-15T11:08:34.495Z,17.74
2022-09-15T11:11:45.896Z,17.68
2022-09-15T11:15:00.526Z,17.67
2022-09-15T11:17:41.690Z,17.68
2022-09-15T11:20:26.790Z,17.69
2022-09-15T11:23:01.048Z,17.71
2022-09-15T11:25:30.482Z,17.68
2022-09-15T11:28:19.353Z,17.67
2022-09-15T11:30:51.978Z,17.62
2022-09-15T11:33:23.012Z,17.63
2022-09-15T11:35:59.389Z,17.63
2022-09-15T11:38:25.961Z,17.61
2022-09-15T11:41:02.949Z,17.57
2022-09-15T11:43:37.190Z,17.57
2022-09-15T11:46:10.156Z,17.59
2022-09-15T11:48:44.009Z,17.59
2022-09-15T11:51:11.779Z,17.58
2022-09-15T11:53:52.950Z,17.59
2022-09-15T11:56:24.822Z,17.63
2022-09-15T11:59:05.496Z,17.68
2022-09-15T12:01:44.439Z,17.75
2022-09-15T12:04:18.293Z,17.80
2022-09-15T12:07:11.108Z,17.82
2022-09-15T12:09:40.532Z,17.88
2022-09-15T12:12:11.617Z,17.88
2022-09-15T12:14:49.643Z,17.86
2022-09-15T12:17:22.522Z,17.81
2022-09-15T12:19:55.666Z,17.81
2022-09-15T12:22:32.180Z,17.81
2022-09-15T12:25:22.927Z,17.81
2022-09-15T12:28:23.924Z,17.78
2022-09-15T12:31:45.771Z,17.79
2022-09-15T12:34:35.497Z,17.79
2022-09-15T12:37:12.677Z,17.77
2022-09-15T12:39:43.641Z,17.81
2022-09-15T12:42:31.400Z,17.84
2022-09-15T12:45:21.148Z,17.79
2022-09-15T12:48:06.640Z,17.81
2022-09-15T12:50:37.775Z,17.78
2022-09-15T12:53:14.893Z,17.82
2022-09-15T12:55:55.737Z,17.94
2022-09-15T12:58:46.353Z,17.92
2022-09-15T13:01:19.411Z,17.89
2022-09-15T13:04:06.154Z,17.88
2022-09-15T13:06:38.458Z,17.86
2022-09-15T13:09:05.919Z,17.87
2022-09-15T13:11:38.737Z,17.87
2022-09-15T13:14:08.236Z,17.90
2022-09-15T13:16:41.136Z,17.99
2022-09-15T13:19:13.464Z,17.98
2022-09-15T13:21:43.167Z,17.98
2022-09-15T13:24:17.838Z,17.97
2022-09-15T13:26:49.431Z,17.95
2022-09-15T13:29:16.868Z,17.96
2022-09-15T13:31:55.602Z,18.04
2022-09-15T13:38:22.048Z,18.24
2022-09-15T13:41:31.126Z,18.40
2022-09-15T13:44:23.580Z,18.27
2022-09-15T13:47:00.026Z,18.24
2022-09-15T13:49:38.988Z,18.32
2022-09-15T13:52:14.277Z,18.20
2022-09-15T13:55:14.626Z,18.15
2022-09-15T14:00:54.409Z,18.37
2022-09-15T14:03:42.987Z,18.49
2022-09-15T14:06:23.481Z,18.65
2022-09-15T14:08:56.651Z,18.70
2022-09-15T14:11:31.361Z,18.82
2022-09-15T14:14:00.514Z,18.89
2022-09-15T14:16:27.895Z,18.89
2022-09-15T14:18:57.590Z,18.88
2022-09-15T14:21:32.577Z,18.75
2022-09-15T14:24:05.576Z,18.56
2022-09-15T14:26:34.488Z,18.42
2022-09-15T14:29:03.664Z,18.34
2022-09-15T14:31:33.467Z,18.25
2022-09-15T14:34:01.389Z,18.24
2022-09-15T14:36:31.867Z,18.22
2022-09-15T14:39:08.957Z,18.16
2022-09-15T14:41:36.705Z,18.11
2022-09-15T14:47:13.224Z,18.25
2022-09-15T14:49:39.829Z,18.26
2022-09-15T14:52:36.437Z,18.35
2022-09-15T14:55:08.089Z,18.30
2022-09-15T14:57:36.820Z,18.27
2022-09-15T15:00:07.832Z,18.22
2022-09-15T15:03:01.725Z,18.18
2022-09-15T15:05:34.056Z,18.11
2022-09-15T15:08:01.803Z,18.07
2022-09-15T15:10:35.467Z,18.06
2022-09-15T15:13:06.755Z,18.08
2022-09-15T15:15:34.314Z,18.07
2022-09-15T15:18:01.055Z,18.05
2022-09-15T15:20:30.416Z,18.07
2022-09-15T15:23:19.965Z,18.07
2022-09-15T15:25:49.288Z,18.08
2022-09-15T15:28:39.475Z,18.10
2022-09-15T15:31:17.867Z,18.04
2022-09-15T15:33:59.670Z,18.01
2022-09-15T15:36:28.736Z,18.00
2022-09-15T15:39:00.486Z,17.97
2022-09-15T15:41:35.458Z,18.01
2022-09-15T15:44:09.241Z,18.01
2022-09-15T15:46:54.062Z,18.07
2022-09-15T15:49:23.791Z,18.05
2022-09-15T15:51:50.353Z,18.03
2022-09-15T15:54:17.139Z,17.98
2022-09-15T15:56:43.937Z,17.96
2022-09-15T15:59:14.228Z,17.93
2022-09-15T16:01:41.015Z,17.90
2022-09-15T16:04:07.967Z,17.92
2022-09-15T16:06:35.174Z,17.89
2022-09-15T16:09:03.761Z,17.89
2022-09-15T16:11:30.397Z,17.86
2022-09-15T16:13:57.021Z,17.84
2022-09-15T16:16:25.887Z,17.88
2022-09-15T16:18:53.006Z,17.83
2022-09-15T16:21:26.529Z,17.83
2022-09-15T16:23:53.151Z,17.81
2022-09-15T16:26:23.299Z,17.80
2022-09-15T16:28:50.194Z,17.80
2022-09-15T16:31:16.987Z,17.84
2022-09-15T16:33:43.990Z,17.84
2022-09-15T16:36:15.471Z,17.83
2022-09-15T16:38:42.768Z,17.85
2022-09-15T16:41:20.170Z,17.83
2022-09-15T16:43:47.182Z,17.78
2022-09-15T16:46:14.490Z,17.81
2022-09-15T16:48:42.795Z,17.81
2022-09-15T16:51:26.657Z,17.80
2022-09-15T16:53:54.087Z,17.77
2022-09-15T16:56:20.684Z,17.76
2022-09-15T16:58:47.444Z,17.77
2022-09-15T17:01:18.223Z,17.71
2022-09-15T17:03:45.302Z,17.67
2022-09-15T17:06:17.757Z,17.63
2022-09-15T17:08:45.003Z,17.62
2022-09-15T17:11:16.431Z,17.61
2022-09-15T17:13:43.621Z,17.58
2022-09-15T17:16:11.439Z,17.50
2022-09-15T17:18:38.193Z,17.45
2022-09-15T17:21:04.943Z,17.45
2022-09-15T17:23:38.072Z,17.42
2022-09-15T17:26:13.814Z,17.45
2022-09-15T17:28:41.118Z,17.51
2022-09-15T17:31:17.536Z,17.52
2022-09-15T17:33:44.642Z,17.53
2022-09-15T17:36:11.749Z,17.54
2022-09-15T17:38:40.965Z,17.56
2022-09-15T17:41:18.789Z,17.54
2022-09-15T17:43:45.552Z,17.50
2022-09-15T17:46:12.329Z,17.49
2022-09-15T17:48:39.282Z,17.47
2022-09-15T17:51:09.957Z,17.45
2022-09-15T17:53:36.561Z,17.42
2022-09-15T17:56:03.219Z,17.36
2022-09-15T17:58:31.482Z,17.31
2022-09-15T18:00:58.508Z,17.34
2022-09-15T18:03:29.528Z,17.31
2022-09-15T18:05:58.586Z,17.33
2022-09-15T18:08:25.737Z,17.36
2022-09-15T18:10:52.544Z,17.36
2022-09-15T18:13:24.502Z,17.29
2022-09-15T18:15:51.407Z,17.28
2022-09-15T18:18:20.351Z,17.29
2022-09-15T18:20:47.482Z,17.30
2022-09-15T18:23:17.005Z,17.28
2022-09-15T18:25:44.361Z,17.26
2022-09-15T18:28:11.119Z,17.25
2022-09-15T18:30:42.353Z,17.25
2022-09-15T18:33:25.519Z,17.22
2022-09-15T18:35:56.145Z,17.21
2022-09-15T18:38:23.324Z,17.24
2022-09-15T18:40:55.404Z,17.24
2022-09-15T18:43:22.894Z,17.26
2022-09-15T18:45:50.330Z,17.23
2022-09-15T18:48:17.080Z,17.20
2022-09-15T18:50:44.601Z,17.12
2022-09-15T18:53:11.926Z,17.12
2022-09-15T18:55:40.902Z,17.09
2022-09-15T18:58:07.581Z,17.08
2022-09-15T19:00:34.167Z,17.05
2022-09-15T19:03:02.449Z,17.07
2022-09-15T19:05:30.051Z,17.07
2022-09-15T19:07:57.301Z,17.13
2022-09-15T19:10:24.795Z,17.17
2022-09-15T19:12:51.521Z,17.09
2022-09-15T19:15:18.332Z,17.07
2022-09-15T19:17:44.956Z,17.03
2022-09-15T19:20:14.251Z,17.02
2022-09-15T19:22:41.739Z,17.05
2022-09-15T19:25:08.916Z,16.94
2022-09-15T19:27:35.745Z,16.95
2022-09-15T19:30:02.338Z,16.97
2022-09-15T19:32:28.926Z,16.94
2022-09-15T19:34:55.532Z,16.93
2022-09-15T19:37:22.845Z,16.92
2022-09-15T19:39:50.210Z,16.94
2022-09-15T19:42:17.026Z,16.89
2022-09-15T19:44:43.997Z,16.92
2022-09-15T19:47:10.914Z,16.88
2022-09-15T19:49:37.880Z,16.84
2022-09-15T19:52:06.368Z,16.85
2022-09-15T19:54:34.538Z,16.83
2022-09-15T19:57:01.792Z,16.82
2022-09-15T19:59:31.298Z,16.79
2022-09-15T20:01:58.528Z,16.77
2022-09-15T20:04:25.224Z,16.78
2022-09-15T20:06:51.955Z,16.75
2022-09-15T20:09:18.807Z,16.76
2022-09-15T20:11:45.636Z,16.73
2022-09-15T20:14:12.290Z,16.78
2022-09-15T20:16:38.978Z,16.77
2022-09-15T20:19:06.167Z,16.73
2022-09-15T20:21:51.376Z,16.80
2022-09-15T20:24:19.262Z,16.75
2022-09-15T20:26:46.063Z,16.72
2022-09-15T20:29:13.195Z,16.73
2022-09-15T20:31:40.190Z,16.72
2022-09-15T20:34:07.259Z,16.79
2022-09-15T20:36:36.265Z,16.76
2022-09-15T20:39:05.230Z,16.75
2022-09-15T20:41:32.072Z,16.75
2022-09-15T20:43:59.350Z,16.79
2022-09-15T20:46:26.579Z,16.78
2022-09-15T20:48:53.444Z,16.81
2022-09-15T20:51:25.710Z,16.80
2022-09-15T20:53:54.524Z,16.74
2022-09-15T20:56:24.981Z,16.75
2022-09-15T20:58:52.999Z,16.75
2022-09-15T21:01:22.587Z,16.71
2022-09-15T21:03:49.492Z,16.76
2022-09-15T21:06:29.620Z,16.78
2022-09-15T21:08:57.756Z,16.75
2022-09-15T21:11:26.326Z,16.72
2022-09-15T21:13:53.542Z,16.75
2022-09-15T21:16:23.111Z,16.79
2022-09-15T21:18:50.334Z,16.83
2022-09-15T21:21:28.355Z,16.79
2022-09-15T21:23:56.874Z,16.75
2022-09-15T21:26:25.786Z,16.76
2022-09-15T21:28:53.609Z,16.79
2022-09-15T21:31:28.346Z,16.83
2022-09-15T21:33:55.685Z,16.85
2022-09-15T21:36:27.576Z,16.86
2022-09-15T21:38:56.241Z,16.76
2022-09-15T21:41:26.079Z,16.74
2022-09-15T21:43:54.962Z,16.67
2022-09-15T21:46:24.063Z,16.65
2022-09-15T21:48:51.794Z,16.68
2022-09-15T21:51:24.196Z,16.71
2022-09-15T21:53:52.524Z,16.73
2022-09-15T21:56:19.185Z,16.72
2022-09-15T21:58:45.860Z,16.61
2022-09-15T22:01:32.755Z,16.56
2022-09-15T22:04:04.985Z,16.56
2022-09-15T22:06:33.747Z,16.55
2022-09-15T22:09:02.020Z,16.56
2022-09-15T22:11:29.049Z,16.51
2022-09-15T22:13:55.787Z,16.48
2022-09-15T22:16:24.191Z,16.42
2022-09-15T22:18:51.587Z,16.41
2022-09-15T22:21:20.671Z,16.44
2022-09-15T22:23:48.637Z,16.45
2022-09-15T22:26:23.981Z,16.46
2022-09-15T22:28:50.571Z,16.52
2022-09-15T22:31:19.156Z,16.47
2022-09-15T22:33:46.028Z,16.48
2022-09-15T22:36:14.578Z,16.47
2022-09-15T22:38:41.201Z,16.42
2022-09-15T22:41:10.104Z,16.41
2022-09-15T22:43:37.040Z,16.40
2022-09-15T22:46:04.234Z,16.41
2022-09-15T22:48:31.143Z,16.43
2022-09-15T22:50:58.140Z,16.42
2022-09-15T22:53:25.423Z,16.45
2022-09-15T22:55:53.284Z,16.43
2022-09-15T22:58:20.043Z,16.40
2022-09-15T23:00:46.807Z,16.39
2022-09-15T23:03:13.496Z,16.38
2022-09-15T23:05:40.149Z,16.41
2022-09-15T23:08:06.933Z,16.42
2022-09-15T23:10:33.520Z,16.43
2022-09-15T23:13:00.536Z,16.43
2022-09-15T23:15:28.034Z,16.37
2022-09-15T23:17:54.679Z,16.41
2022-09-15T23:20:21.630Z,16.38
2022-09-15T23:22:48.281Z,16.40
2022-09-15T23:25:14.968Z,16.40
2022-09-15T23:27:41.563Z,16.37
2022-09-15T23:30:08.983Z,16.34
2022-09-15T23:32:35.560Z,16.34
2022-09-15T23:35:02.175Z,16.32
2022-09-15T23:37:28.804Z,16.31
2022-09-15T23:39:55.527Z,16.33
2022-09-15T23:42:22.185Z,16.25
2022-09-15T23:44:48.793Z,16.23
2022-09-15T23:47:15.368Z,16.26
2022-09-15T23:49:42.025Z,16.21
2022-09-15T23:52:08.626Z,16.21
2022-09-15T23:54:35.319Z,16.19
2022-09-15T23:57:01.914Z,16.15
2022-09-15T23:59:28.493Z,16.19
